createdAt,value
2023-04-16T00:01:16.374Z,98261.50
2023-04-16T00:03:43.693Z,98257.66
2023-04-16T00:06:12.652Z,98264.44
2023-04-16T00:08:41.158Z,98264.38
2023-04-16T00:11:08.503Z,98267.56
2023-04-16T00:13:38.490Z,98269.03
2023-04-16T00:16:06.422Z,98273.41
2023-04-16T00:18:33.267Z,98279.03
2023-04-16T00:21:00.489Z,98270.81
2023-04-16T00:23:27.830Z,98280.72
2023-04-16T00:25:57.336Z,98285.09
2023-04-16T00:28:24.322Z,98278.19
2023-04-16T00:30:51.703Z,98288.63
2023-04-16T00:33:18.748Z,98294.19
2023-04-16T00:35:47.004Z,98295.88
2023-04-16T00:38:14.654Z,98295.88
2023-04-16T00:40:41.895Z,98288.22
2023-04-16T00:43:08.890Z,98288.19
2023-04-16T00:45:36.830Z,98299.28
2023-04-16T00:48:04.469Z,98294.25
2023-04-16T00:50:31.744Z,98303.25
2023-04-16T00:52:59.284Z,98298.34
2023-04-16T00:55:26.614Z,98302.97
2023-04-16T00:57:53.517Z,98303.16
2023-04-16T01:00:21.785Z,98297.84
2023-04-16T01:02:49.287Z,98297.13
2023-04-16T01:05:16.741Z,98295.97
2023-04-16T01:07:44.137Z,98301.28
2023-04-16T01:10:11.572Z,98300.00
2023-04-16T01:12:38.653Z,98301.72
2023-04-16T01:15:07.084Z,98301.41
2023-04-16T01:17:34.061Z,98309.16
2023-04-16T01:20:01.330Z,98311.34
2023-04-16T01:22:29.467Z,98309.47
2023-04-16T01:24:56.668Z,98311.84
2023-04-16T01:27:23.572Z,98306.13
2023-04-16T01:29:51.488Z,98298.47
2023-04-16T01:32:18.436Z,98298.69
2023-04-16T01:34:45.631Z,98301.09
2023-04-16T01:37:12.944Z,98298.69
2023-04-16T01:39:40.154Z,98298.22
2023-04-16T01:42:07.097Z,98300.41
2023-04-16T01:44:34.774Z,98303.31
2023-04-16T01:47:01.759Z,98298.94
2023-04-16T01:49:29.939Z,98297.66
2023-04-16T01:51:57.246Z,98304.84
2023-04-16T01:54:25.709Z,98306.81
2023-04-16T01:56:52.599Z,98307.53
2023-04-16T01:59:20.759Z,98313.69
2023-04-16T02:01:47.777Z,98309.97
2023-04-16T02:04:15.207Z,98316.03
2023-04-16T02:06:42.626Z,98311.09
2023-04-16T02:09:10.153Z,98314.06
2023-04-16T02:11:37.297Z,98310.28
2023-04-16T02:14:04.797Z,98313.38
2023-04-16T02:16:31.759Z,98316.72
2023-04-16T02:18:58.981Z,98318.09
2023-04-16T02:21:26.327Z,98313.56
2023-04-16T02:23:53.578Z,98320.44
2023-04-16T02:26:20.585Z,98315.44
2023-04-16T02:28:48.198Z,98324.44
2023-04-16T02:31:18.095Z,98320.84
2023-04-16T02:33:45.551Z,98323.72
2023-04-16T02:36:13.278Z,98329.00
2023-04-16T02:38:40.486Z,98338.41
2023-04-16T02:41:07.376Z,98344.38
2023-04-16T02:43:34.694Z,98340.66
2023-04-16T02:46:01.754Z,98356.19
2023-04-16T02:48:29.108Z,98348.13
2023-04-16T02:50:56.511Z,98356.38
2023-04-16T02:53:23.681Z,98359.00
2023-04-16T02:55:56.763Z,98348.47
2023-04-16T02:58:25.480Z,98346.97
2023-04-16T03:00:53.143Z,98350.44
2023-04-16T03:03:21.297Z,98348.38
2023-04-16T03:05:49.098Z,98356.56
2023-04-16T03:08:16.294Z,98355.25
2023-04-16T03:10:43.195Z,98359.50
2023-04-16T03:13:10.999Z,98360.88
2023-04-16T03:15:37.927Z,98363.66
2023-04-16T03:18:05.232Z,98362.16
2023-04-16T03:20:32.724Z,98359.75
2023-04-16T03:23:00.324Z,98353.59
2023-04-16T03:25:27.203Z,98352.00
2023-04-16T03:27:54.800Z,98355.94
2023-04-16T03:30:21.842Z,98358.44
2023-04-16T03:32:49.243Z,98357.63
2023-04-16T03:35:16.788Z,98368.31
2023-04-16T03:37:44.188Z,98366.06
2023-04-16T03:40:11.432Z,98371.75
2023-04-16T03:42:38.979Z,98372.41
2023-04-16T03:45:06.557Z,98383.09
2023-04-16T03:47:33.755Z,98384.47
2023-04-16T03:50:00.978Z,98391.72
2023-04-16T03:52:28.498Z,98404.75
2023-04-16T03:54:55.553Z,98405.22
2023-04-16T03:57:22.836Z,98409.50
2023-04-16T03:59:50.032Z,98415.84
2023-04-16T04:02:17.325Z,98418.66
2023-04-16T04:04:44.707Z,98413.00
2023-04-16T04:07:12.109Z,98413.34
2023-04-16T04:09:39.051Z,98422.75
2023-04-16T04:12:06.815Z,98417.53
2023-04-16T04:14:33.705Z,98419.31
2023-04-16T04:17:01.008Z,98420.44
2023-04-16T04:19:28.089Z,98427.00
2023-04-16T04:21:55.502Z,98434.84
2023-04-16T04:24:22.349Z,98422.38
2023-04-16T04:26:49.739Z,98429.16
2023-04-16T04:29:16.667Z,98441.41
2023-04-16T04:31:43.884Z,98435.78
2023-04-16T04:34:11.412Z,98440.22
2023-04-16T04:36:38.678Z,98437.53
2023-04-16T04:39:05.677Z,98439.91
2023-04-16T04:41:33.221Z,98442.28
2023-04-16T04:44:00.225Z,98447.78
2023-04-16T04:46:27.442Z,98449.25
2023-04-16T04:48:54.566Z,98444.25
2023-04-16T04:51:21.856Z,98447.53
2023-04-16T04:53:48.932Z,98440.47
2023-04-16T04:56:16.452Z,98443.59
2023-04-16T04:58:43.422Z,98441.84
2023-04-16T05:01:10.836Z,98450.28
2023-04-16T05:03:38.179Z,98444.63
2023-04-16T05:06:05.815Z,98443.00
2023-04-16T05:08:33.033Z,98437.56
2023-04-16T05:11:00.747Z,98433.44
2023-04-16T05:13:27.736Z,98434.03
2023-04-16T05:15:55.496Z,98443.31
2023-04-16T05:18:22.579Z,98445.09
2023-04-16T05:20:50.027Z,98441.09
2023-04-16T05:23:16.994Z,98453.19
2023-04-16T05:25:44.293Z,98450.25
2023-04-16T05:28:11.661Z,98456.50
2023-04-16T05:30:39.096Z,98465.97
2023-04-16T05:33:06.715Z,98462.91
2023-04-16T05:35:35.290Z,98470.97
2023-04-16T05:38:02.528Z,98470.97
2023-04-16T05:40:30.099Z,98464.41
2023-04-16T05:42:57.190Z,98469.38
2023-04-16T05:45:25.607Z,98482.03
2023-04-16T05:47:54.804Z,98480.09
2023-04-16T05:50:22.082Z,98480.84
2023-04-16T05:52:49.005Z,98483.66
2023-04-16T05:55:16.412Z,98488.34
2023-04-16T05:57:43.322Z,98489.53
2023-04-16T06:00:11.522Z,98489.22
2023-04-16T06:02:38.886Z,98482.63
2023-04-16T06:05:06.647Z,98483.13
2023-04-16T06:07:33.701Z,98485.31
2023-04-16T06:10:01.373Z,98483.44
2023-04-16T06:12:28.313Z,98492.41
2023-04-16T06:14:56.378Z,98500.16
2023-04-16T06:17:23.689Z,98500.88
2023-04-16T06:19:51.121Z,98500.75
2023-04-16T06:22:18.238Z,98497.59
2023-04-16T06:24:45.732Z,98500.25
2023-04-16T06:27:12.644Z,98489.81
2023-04-16T06:29:41.668Z,98496.19
2023-04-16T06:32:09.132Z,98503.41
2023-04-16T06:34:37.399Z,98504.41
2023-04-16T06:37:04.313Z,98505.47
2023-04-16T06:39:32.009Z,98500.09
2023-04-16T06:41:59.072Z,98502.00
2023-04-16T06:44:26.649Z,98503.97
2023-04-16T06:46:53.782Z,98497.84
2023-04-16T06:49:21.810Z,98490.00
2023-04-16T06:51:48.961Z,98492.38
2023-04-16T06:54:16.943Z,98504.34
2023-04-16T06:56:44.027Z,98505.00
2023-04-16T06:59:12.095Z,98500.88
2023-04-16T07:01:39.318Z,98509.53
2023-04-16T07:04:06.766Z,98509.22
2023-04-16T07:06:34.083Z,98510.63
2023-04-16T07:09:01.955Z,98504.13
2023-04-16T07:11:29.129Z,98512.22
2023-04-16T07:13:57.856Z,98504.34
2023-04-16T07:16:25.129Z,98513.81
2023-04-16T07:18:52.339Z,98517.97
2023-04-16T07:21:19.362Z,98519.34
2023-04-16T07:23:46.656Z,98522.47
2023-04-16T07:26:13.676Z,98522.75
2023-04-16T07:28:41.003Z,98521.34
2023-04-16T07:31:08.444Z,98523.88
2023-04-16T07:33:36.069Z,98522.19
2023-04-16T07:36:03.549Z,98521.31
2023-04-16T07:38:31.212Z,98530.13
2023-04-16T07:40:58.183Z,98531.88
2023-04-16T07:43:25.712Z,98534.13
2023-04-16T07:45:52.834Z,98536.38
2023-04-16T07:48:20.083Z,98540.56
2023-04-16T07:50:47.088Z,98541.63
2023-04-16T07:53:14.772Z,98540.00
2023-04-16T07:55:41.778Z,98543.00
2023-04-16T07:58:09.720Z,98543.31
2023-04-16T08:00:37.926Z,98555.81
2023-04-16T08:03:05.432Z,98549.69
2023-04-16T08:05:32.811Z,98546.19
2023-04-16T08:08:00.644Z,98545.00
2023-04-16T08:10:28.062Z,98542.47
2023-04-16T08:12:55.438Z,98547.34
2023-04-16T08:15:22.770Z,98542.72
2023-04-16T08:17:50.097Z,98538.47
2023-04-16T08:20:19.292Z,98537.66
2023-04-16T08:22:48.516Z,98541.56
2023-04-16T08:25:15.883Z,98539.75
2023-04-16T08:27:43.297Z,98537.06
2023-04-16T08:30:10.678Z,98540.34
2023-04-16T08:32:38.444Z,98545.69
2023-04-16T08:35:06.161Z,98539.75
2023-04-16T08:37:33.927Z,98544.97
2023-04-16T08:40:02.530Z,98541.84
2023-04-16T08:42:32.669Z,98544.38
2023-04-16T08:45:09.060Z,98549.22
2023-04-16T08:47:39.280Z,98542.75
2023-04-16T08:50:07.196Z,98552.50
2023-04-16T08:52:38.246Z,98549.94
2023-04-16T08:55:09.760Z,98543.78
2023-04-16T08:57:48.282Z,98556.34
2023-04-16T09:00:16.824Z,98550.09
2023-04-16T09:02:44.702Z,98542.38
2023-04-16T09:05:17.192Z,98547.88
2023-04-16T09:07:45.811Z,98552.63
2023-04-16T09:10:14.748Z,98546.06
2023-04-16T09:12:43.187Z,98544.59
2023-04-16T09:15:11.831Z,98541.31
2023-04-16T09:17:39.926Z,98537.50
2023-04-16T09:20:09.075Z,98550.94
2023-04-16T09:22:37.007Z,98553.03
2023-04-16T09:25:05.665Z,98553.63
2023-04-16T09:27:35.941Z,98554.59
2023-04-16T09:30:21.994Z,98547.41
2023-04-16T09:32:50.954Z,98543.59
2023-04-16T09:35:21.253Z,98546.16
2023-04-16T09:37:57.280Z,98546.41
2023-04-16T09:40:26.514Z,98546.41
2023-04-16T09:42:57.666Z,98544.47
2023-04-16T09:45:24.912Z,98547.91
2023-04-16T09:47:52.374Z,98554.19
2023-04-16T09:50:20.723Z,98548.97
2023-04-16T09:52:51.686Z,98542.84
2023-04-16T09:55:27.622Z,98549.47
2023-04-16T09:58:02.238Z,98553.44
2023-04-16T10:00:31.479Z,98554.88
2023-04-16T10:03:06.910Z,98550.34
2023-04-16T10:05:34.362Z,98561.78
2023-04-16T10:08:02.347Z,98567.78
2023-04-16T10:10:29.923Z,98560.66
2023-04-16T10:12:58.153Z,98571.84
2023-04-16T10:15:25.868Z,98568.22
2023-04-16T10:17:54.375Z,98568.88
2023-04-16T10:20:21.724Z,98575.31
2023-04-16T10:22:49.541Z,98577.00
2023-04-16T10:25:17.466Z,98579.47
2023-04-16T10:27:45.089Z,98568.22
2023-04-16T10:30:16.133Z,98567.75
2023-04-16T10:32:45.175Z,98572.72
2023-04-16T10:35:16.943Z,98579.75
2023-04-16T10:37:45.413Z,98575.53
2023-04-16T10:40:26.176Z,98572.22
2023-04-16T10:42:56.633Z,98560.09
2023-04-16T10:45:29.856Z,98557.19
2023-04-16T10:48:00.732Z,98558.91
2023-04-16T10:50:35.880Z,98575.53
2023-04-16T10:53:23.858Z,98560.69
2023-04-16T10:56:23.597Z,98569.53
2023-04-16T10:58:54.716Z,98569.22
2023-04-16T11:01:30.600Z,98564.53
2023-04-16T11:04:20.021Z,98577.22
2023-04-16T11:07:15.093Z,98577.22
2023-04-16T11:10:05.573Z,98581.25
2023-04-16T11:12:34.221Z,98575.78
2023-04-16T11:15:04.131Z,98578.09
2023-04-16T11:17:45.949Z,98580.53
2023-04-16T11:24:15.165Z,98581.00
2023-04-16T11:26:42.816Z,98577.50
2023-04-16T11:29:29.241Z,98572.47
2023-04-16T11:31:57.319Z,98569.88
2023-04-16T11:34:25.003Z,98572.03
2023-04-16T11:36:53.017Z,98574.63
2023-04-16T11:39:24.992Z,98580.34
2023-04-16T11:41:53.256Z,98577.69
2023-04-16T11:44:28.173Z,98573.84
2023-04-16T11:46:56.091Z,98573.78
2023-04-16T11:50:10.309Z,98573.69
2023-04-16T11:52:37.986Z,98575.22
2023-04-16T11:55:05.867Z,98574.38
2023-04-16T11:57:33.505Z,98575.56
2023-04-16T12:00:07.435Z,98577.13
2023-04-16T12:02:41.319Z,98572.41
2023-04-16T12:05:37.366Z,98574.53
2023-04-16T12:08:09.737Z,98577.63
2023-04-16T12:10:55.567Z,98564.84
2023-04-16T12:13:23.252Z,98572.50
2023-04-16T12:15:56.264Z,98578.91
2023-04-16T12:18:29.839Z,98574.34
2023-04-16T12:20:57.074Z,98577.53
2023-04-16T12:23:28.749Z,98570.16
2023-04-16T12:25:59.968Z,98563.13
2023-04-16T12:31:39.169Z,98561.06
2023-04-16T12:34:06.696Z,98557.59
2023-04-16T12:36:34.850Z,98554.22
2023-04-16T12:39:03.476Z,98552.19
2023-04-16T12:41:30.975Z,98547.88
2023-04-16T12:44:12.117Z,98557.47
2023-04-16T12:46:43.525Z,98552.88
2023-04-16T12:49:11.968Z,98555.03
2023-04-16T12:51:39.274Z,98553.84
2023-04-16T12:54:23.496Z,98562.06
2023-04-16T12:56:50.696Z,98552.59
2023-04-16T12:59:18.305Z,98555.78
2023-04-16T13:02:39.543Z,98557.63
2023-04-16T13:05:08.125Z,98557.09
2023-04-16T13:07:35.381Z,98547.16
2023-04-16T13:10:03.029Z,98548.78
2023-04-16T13:12:31.167Z,98544.91
2023-04-16T13:14:58.468Z,98553.09
2023-04-16T13:17:31.416Z,98549.44
2023-04-16T13:19:58.888Z,98554.19
2023-04-16T13:22:28.490Z,98553.44
2023-04-16T13:24:55.952Z,98551.34
2023-04-16T13:27:26.785Z,98548.84
2023-04-16T13:29:54.428Z,98551.47
2023-04-16T13:32:21.443Z,98548.75
2023-04-16T13:34:48.906Z,98553.88
2023-04-16T13:37:15.948Z,98546.84
2023-04-16T13:39:43.237Z,98550.03
2023-04-16T13:42:10.771Z,98549.28
2023-04-16T13:44:38.048Z,98546.53
2023-04-16T13:47:05.666Z,98541.84
2023-04-16T13:49:35.992Z,98545.06
2023-04-16T13:52:03.816Z,98534.41
2023-04-16T13:54:31.464Z,98544.84
2023-04-16T13:56:58.621Z,98542.94
2023-04-16T13:59:26.456Z,98536.97
2023-04-16T14:01:53.887Z,98541.59
2023-04-16T14:04:22.659Z,98543.34
2023-04-16T14:06:50.020Z,98538.31
2023-04-16T14:09:17.469Z,98539.19
2023-04-16T14:11:44.599Z,98546.50
2023-04-16T14:14:14.597Z,98541.06
2023-04-16T14:16:42.374Z,98537.34
2023-04-16T14:19:11.058Z,98531.47
2023-04-16T14:21:38.524Z,98544.38
2023-04-16T14:24:06.537Z,98539.13
2023-04-16T14:26:33.768Z,98533.81
2023-04-16T14:29:01.486Z,98529.50
2023-04-16T14:31:30.042Z,98529.75
2023-04-16T14:33:57.508Z,98526.00
2023-04-16T14:36:24.582Z,98532.97
2023-04-16T14:38:52.289Z,98524.09
2023-04-16T14:41:19.719Z,98522.44
2023-04-16T14:43:47.026Z,98521.97
2023-04-16T14:46:17.781Z,98519.72
2023-04-16T14:48:46.204Z,98517.13
2023-04-16T14:51:13.638Z,98515.13
2023-04-16T14:53:44.983Z,98525.28
2023-04-16T14:56:13.698Z,98525.03
2023-04-16T14:58:42.952Z,98529.50
2023-04-16T15:01:10.140Z,98518.03
2023-04-16T15:03:39.849Z,98525.00
2023-04-16T15:06:06.959Z,98528.53
2023-04-16T15:08:34.789Z,98525.91
2023-04-16T15:11:02.010Z,98531.34
2023-04-16T15:13:35.345Z,98526.84
2023-04-16T15:16:02.779Z,98524.50
2023-04-16T15:18:30.728Z,98518.72
2023-04-16T15:20:57.773Z,98521.00
2023-04-16T15:23:25.337Z,98515.75
2023-04-16T15:25:52.498Z,98520.69
2023-04-16T15:28:19.727Z,98527.19
2023-04-16T15:30:46.723Z,98528.72
2023-04-16T15:33:14.179Z,98530.38
2023-04-16T15:35:41.527Z,98532.00
2023-04-16T15:38:08.941Z,98534.97
2023-04-16T15:40:38.344Z,98528.53
2023-04-16T15:43:06.637Z,98531.34
2023-04-16T15:45:33.799Z,98522.19
2023-04-16T15:48:27.570Z,98535.13
2023-04-16T15:50:54.999Z,98530.94
2023-04-16T15:53:22.680Z,98532.78
2023-04-16T15:55:52.540Z,98532.97
2023-04-16T15:58:21.091Z,98534.31
2023-04-16T16:00:50.074Z,98536.19
2023-04-16T16:03:18.301Z,98534.69
2023-04-16T16:05:49.049Z,98537.34
2023-04-16T16:08:17.033Z,98530.22
2023-04-16T16:10:44.100Z,98533.13
2023-04-16T16:13:14.319Z,98537.63
2023-04-16T16:15:41.989Z,98538.13
2023-04-16T16:18:09.379Z,98540.34
2023-04-16T16:20:36.836Z,98538.66
2023-04-16T16:23:04.687Z,98546.31
2023-04-16T16:25:32.091Z,98545.28
2023-04-16T16:27:59.728Z,98542.38
2023-04-16T16:30:27.789Z,98550.28
2023-04-16T16:32:55.552Z,98555.59
2023-04-16T16:35:22.620Z,98553.28
2023-04-16T16:37:55.497Z,98557.28
2023-04-16T16:40:22.501Z,98553.59
2023-04-16T16:42:51.401Z,98559.94
2023-04-16T16:45:18.760Z,98566.44
2023-04-16T16:47:46.462Z,98563.91
2023-04-16T16:50:13.757Z,98564.13
2023-04-16T16:52:41.297Z,98560.66
2023-04-16T16:55:11.330Z,98566.16
2023-04-16T16:57:41.930Z,98575.09
2023-04-16T17:00:15.252Z,98574.09
2023-04-16T17:02:43.268Z,98578.66
2023-04-16T17:05:11.199Z,98578.50
2023-04-16T17:07:39.081Z,98586.03
2023-04-16T17:10:07.074Z,98582.38
2023-04-16T17:12:34.687Z,98591.91
2023-04-16T17:15:01.711Z,98588.59
2023-04-16T17:17:32.181Z,98594.56
2023-04-16T17:20:01.376Z,98597.44
2023-04-16T17:22:28.676Z,98598.56
2023-04-16T17:24:55.913Z,98600.28
2023-04-16T17:27:23.429Z,98602.84
2023-04-16T17:29:50.395Z,98607.06
2023-04-16T17:32:17.971Z,98607.94
2023-04-16T17:34:45.212Z,98603.97
2023-04-16T17:37:12.847Z,98617.19
2023-04-16T17:39:39.942Z,98617.19
2023-04-16T17:42:07.358Z,98619.16
2023-04-16T17:44:34.302Z,98621.25
2023-04-16T17:47:02.267Z,98626.38
2023-04-16T17:49:29.520Z,98630.34
2023-04-16T17:51:57.750Z,98632.19
2023-04-16T17:54:25.436Z,98631.81
2023-04-16T17:56:53.672Z,98631.88
2023-04-16T17:59:20.849Z,98630.25
2023-04-16T18:01:49.777Z,98634.38
2023-04-16T18:04:17.900Z,98642.09
2023-04-16T18:06:45.793Z,98641.97
2023-04-16T18:09:14.463Z,98637.78
2023-04-16T18:11:41.921Z,98643.50
2023-04-16T18:14:10.260Z,98643.50
2023-04-16T18:16:38.134Z,98648.78
2023-04-16T18:19:05.867Z,98654.34
2023-04-16T18:21:34.101Z,98656.94
2023-04-16T18:24:03.575Z,98657.31
2023-04-16T18:26:33.261Z,98664.72
2023-04-16T18:29:03.147Z,98668.03
2023-04-16T18:31:30.566Z,98676.25
2023-04-16T18:33:58.564Z,98674.75
2023-04-16T18:36:27.115Z,98676.38
2023-04-16T18:39:00.860Z,98672.50
2023-04-16T18:41:30.134Z,98678.59
2023-04-16T18:43:57.876Z,98686.72
2023-04-16T18:46:25.548Z,98680.47
2023-04-16T18:48:52.996Z,98694.59
2023-04-16T18:51:20.410Z,98686.94
2023-04-16T18:53:47.715Z,98692.28
2023-04-16T18:56:15.137Z,98693.06
2023-04-16T18:58:42.146Z,98690.81
2023-04-16T19:01:13.143Z,98696.69
2023-04-16T19:03:40.878Z,98686.59
2023-04-16T19:06:08.550Z,98693.47
2023-04-16T19:08:35.627Z,98684.03
2023-04-16T19:11:03.239Z,98695.56
2023-04-16T19:13:33.429Z,98688.16
2023-04-16T19:16:01.885Z,98680.50
2023-04-16T19:18:37.347Z,98696.06
2023-04-16T19:21:05.702Z,98692.72
2023-04-16T19:23:33.147Z,98690.59
2023-04-16T19:26:01.835Z,98691.31
2023-04-16T19:28:28.954Z,98693.09
2023-04-16T19:30:56.621Z,98686.16
2023-04-16T19:33:23.693Z,98685.59
2023-04-16T19:35:51.022Z,98690.91
2023-04-16T19:38:18.286Z,98690.47
2023-04-16T19:40:49.000Z,98689.56
2023-04-16T19:43:16.023Z,98688.47
2023-04-16T19:45:44.845Z,98680.03
2023-04-16T19:48:12.315Z,98679.44
2023-04-16T19:50:43.444Z,98685.34
2023-04-16T19:53:11.372Z,98692.56
2023-04-16T19:55:42.101Z,98688.63
2023-04-16T19:58:09.571Z,98692.09
2023-04-16T20:00:41.224Z,98695.31
2023-04-16T20:03:08.548Z,98689.44
2023-04-16T20:05:35.953Z,98688.03
2023-04-16T20:08:03.279Z,98678.50
2023-04-16T20:10:31.808Z,98683.88
2023-04-16T20:12:58.978Z,98687.13
2023-04-16T20:15:26.828Z,98688.69
2023-04-16T20:17:54.495Z,98682.72
2023-04-16T20:20:23.777Z,98686.44
2023-04-16T20:22:51.083Z,98684.03
2023-04-16T20:25:21.675Z,98685.34
2023-04-16T20:27:48.668Z,98678.69
2023-04-16T20:30:16.517Z,98684.91
2023-04-16T20:32:43.713Z,98685.34
2023-04-16T20:35:11.641Z,98684.75
2023-04-16T20:37:39.329Z,98699.69
2023-04-16T20:40:08.826Z,98689.28
2023-04-16T20:42:35.897Z,98693.34
2023-04-16T20:45:03.441Z,98688.56
2023-04-16T20:47:30.635Z,98689.78
2023-04-16T20:49:58.367Z,98692.88
2023-04-16T20:52:25.496Z,98684.75
2023-04-16T20:54:52.741Z,98690.16
2023-04-16T20:57:19.806Z,98689.63
2023-04-16T20:59:47.185Z,98691.06
2023-04-16T21:02:14.535Z,98690.31
2023-04-16T21:04:42.151Z,98694.13
2023-04-16T21:07:09.311Z,98692.19
2023-04-16T21:09:36.844Z,98692.84
2023-04-16T21:12:04.284Z,98695.47
2023-04-16T21:14:31.692Z,98693.03
2023-04-16T21:16:58.757Z,98694.50
2023-04-16T21:19:25.977Z,98695.19
2023-04-16T21:21:53.074Z,98686.72
2023-04-16T21:24:20.425Z,98685.81
2023-04-16T21:26:47.552Z,98694.09
2023-04-16T21:29:15.119Z,98686.53
2023-04-16T21:31:42.114Z,98687.25
2023-04-16T21:34:09.407Z,98688.91
2023-04-16T21:36:36.619Z,98695.13
2023-04-16T21:39:04.083Z,98692.63
2023-04-16T21:41:31.255Z,98684.66
2023-04-16T21:43:58.725Z,98693.38
2023-04-16T21:46:26.705Z,98697.50
2023-04-16T21:48:54.235Z,98701.94
2023-04-16T21:51:29.228Z,98704.78
2023-04-16T21:53:57.354Z,98696.50
2023-04-16T21:56:25.301Z,98703.19
2023-04-16T21:58:52.841Z,98697.13
2023-04-16T22:01:19.935Z,98708.03
2023-04-16T22:03:50.958Z,98703.91
2023-04-16T22:06:18.355Z,98702.69
2023-04-16T22:08:45.579Z,98702.44
2023-04-16T22:11:12.676Z,98699.00
2023-04-16T22:13:42.227Z,98702.31
2023-04-16T22:16:11.509Z,98695.41
2023-04-16T22:18:41.288Z,98699.00
2023-04-16T22:21:08.328Z,98698.28
2023-04-16T22:23:36.040Z,98697.94
2023-04-16T22:26:04.224Z,98707.25
2023-04-16T22:28:31.505Z,98698.75
2023-04-16T22:30:58.520Z,98697.72
2023-04-16T22:33:25.949Z,98715.59
2023-04-16T22:35:53.024Z,98715.34
2023-04-16T22:38:21.471Z,98720.22
2023-04-16T22:40:49.051Z,98722.06
2023-04-16T22:43:17.745Z,98717.47
2023-04-16T22:45:46.469Z,98725.44
2023-04-16T22:48:14.005Z,98721.56
2023-04-16T22:50:45.977Z,98721.16
2023-04-16T22:53:13.305Z,98729.22
2023-04-16T22:55:40.523Z,98719.88
2023-04-16T22:58:07.711Z,98717.94
2023-04-16T23:00:34.651Z,98718.09
2023-04-16T23:03:02.167Z,98716.84
2023-04-16T23:05:29.383Z,98713.72
2023-04-16T23:07:56.697Z,98717.03
2023-04-16T23:10:23.734Z,98723.34
2023-04-16T23:12:51.058Z,98725.72
2023-04-16T23:15:18.271Z,98720.59
2023-04-16T23:17:46.167Z,98715.56
2023-04-16T23:20:13.465Z,98717.75
2023-04-16T23:22:41.470Z,98715.84
2023-04-16T23:25:09.142Z,98717.22
2023-04-16T23:27:37.169Z,98723.50
2023-04-16T23:30:04.662Z,98723.94
2023-04-16T23:32:31.973Z,98720.25
2023-04-16T23:34:59.097Z,98710.31
2023-04-16T23:37:26.476Z,98715.28
2023-04-16T23:39:53.668Z,98727.88
2023-04-16T23:42:21.236Z,98725.22
2023-04-16T23:44:48.133Z,98724.63
2023-04-16T23:47:15.691Z,98720.47
2023-04-16T23:49:42.728Z,98719.44
2023-04-16T23:52:10.378Z,98716.94
2023-04-16T23:54:37.653Z,98710.72
2023-04-16T23:57:04.846Z,98707.75
2023-04-16T23:59:31.767Z,98705.06
